createdAt,value
2023-10-06T00:01:04.590Z,102554.53
2023-10-06T00:03:31.146Z,102550.22
2023-10-06T00:05:57.747Z,102536.91
2023-10-06T00:08:33.067Z,102549.00
2023-10-06T00:11:11.926Z,102534.16
2023-10-06T00:13:39.220Z,102537.25
2023-10-06T00:16:08.534Z,102532.94
2023-10-06T00:18:37.960Z,102531.00
2023-10-06T00:21:17.562Z,102526.69
2023-10-06T00:23:44.511Z,102522.34
2023-10-06T00:26:13.432Z,102523.88
2023-10-06T00:28:40.577Z,102540.63
2023-10-06T00:31:11.515Z,102529.25
2023-10-06T00:33:39.127Z,102539.34
2023-10-06T00:36:13.754Z,102536.19
2023-10-06T00:38:44.158Z,102537.31
2023-10-06T00:41:15.281Z,102532.59
2023-10-06T00:43:44.837Z,102532.94
2023-10-06T00:46:12.148Z,102532.59
2023-10-06T00:48:41.494Z,102527.47
2023-10-06T00:51:13.917Z,102527.47
2023-10-06T00:53:41.527Z,102528.63
2023-10-06T00:56:12.399Z,102518.41
2023-10-06T00:58:42.266Z,102517.25
2023-10-06T01:01:13.361Z,102524.25
2023-10-06T01:03:43.844Z,102516.38
2023-10-06T01:06:14.286Z,102514.78
2023-10-06T01:08:49.409Z,102506.88
2023-10-06T01:11:18.781Z,102496.75
2023-10-06T01:13:54.681Z,102499.91
2023-10-06T01:16:36.959Z,102496.38
2023-10-06T01:19:27.792Z,102490.50
2023-10-06T01:21:56.196Z,102490.06
2023-10-06T01:24:30.571Z,102489.69
2023-10-06T01:27:12.442Z,102484.59
2023-10-06T01:29:39.455Z,102480.34
2023-10-06T01:32:06.710Z,102473.66
2023-10-06T01:34:39.372Z,102478.34
2023-10-06T01:37:07.381Z,102479.13
2023-10-06T01:39:36.664Z,102481.84
2023-10-06T01:42:08.364Z,102480.28
2023-10-06T01:44:36.374Z,102486.88
2023-10-06T01:47:06.110Z,102482.22
2023-10-06T01:49:35.294Z,102488.84
2023-10-06T01:52:09.420Z,102499.75
2023-10-06T01:54:36.837Z,102500.94
2023-10-06T01:57:05.438Z,102513.38
2023-10-06T01:59:32.005Z,102512.56
2023-10-06T02:02:02.617Z,102517.69
2023-10-06T02:04:40.426Z,102521.56
2023-10-06T02:07:11.372Z,102518.41
2023-10-06T02:09:38.599Z,102509.75
2023-10-06T02:12:06.328Z,102506.59
2023-10-06T02:14:32.923Z,102507.38
2023-10-06T02:17:06.472Z,102501.47
2023-10-06T02:19:35.350Z,102501.81
2023-10-06T02:22:02.174Z,102500.25
2023-10-06T02:24:28.783Z,102501.38
2023-10-06T02:27:02.812Z,102488.91
2023-10-06T02:29:30.455Z,102491.63
2023-10-06T02:32:08.341Z,102487.31
2023-10-06T02:34:37.028Z,102483.78
2023-10-06T02:37:05.647Z,102477.19
2023-10-06T02:39:39.913Z,102474.78
2023-10-06T02:42:10.452Z,102477.97
2023-10-06T02:44:39.945Z,102465.81
2023-10-06T02:47:10.913Z,102462.31
2023-10-06T02:49:41.538Z,102455.25
2023-10-06T02:52:14.453Z,102451.72
2023-10-06T02:54:48.279Z,102452.50
2023-10-06T02:57:21.064Z,102455.69
2023-10-06T02:59:49.333Z,102450.56
2023-10-06T03:02:21.835Z,102460.69
2023-10-06T03:04:55.943Z,102453.28
2023-10-06T03:07:23.445Z,102449.44
2023-10-06T03:09:50.090Z,102437.72
2023-10-06T03:12:27.109Z,102435.75
2023-10-06T03:14:55.523Z,102431.44
2023-10-06T03:17:22.279Z,102438.84
2023-10-06T03:20:09.426Z,102426.78
2023-10-06T03:22:38.833Z,102424.06
2023-10-06T03:25:19.093Z,102428.69
2023-10-06T03:27:47.239Z,102431.44
2023-10-06T03:30:27.820Z,102433.38
2023-10-06T03:32:54.941Z,102437.28
2023-10-06T03:35:38.071Z,102438.50
2023-10-06T03:38:29.036Z,102424.06
2023-10-06T03:40:58.278Z,102431.00
2023-10-06T03:43:43.643Z,102424.41
2023-10-06T03:46:14.893Z,102413.81
2023-10-06T03:48:42.110Z,102419.38
2023-10-06T03:51:08.587Z,102417.00
2023-10-06T03:53:35.203Z,102423.97
2023-10-06T03:56:02.026Z,102431.00
2023-10-06T03:58:29.440Z,102421.25
2023-10-06T04:00:56.194Z,102427.13
2023-10-06T04:03:22.996Z,102419.72
2023-10-06T04:05:50.847Z,102415.03
2023-10-06T04:08:20.315Z,102416.63
2023-10-06T04:10:49.991Z,102417.78
2023-10-06T04:13:24.007Z,102413.91
2023-10-06T04:15:51.749Z,102417.00
2023-10-06T04:18:19.982Z,102413.13
2023-10-06T04:20:47.284Z,102411.19
2023-10-06T04:23:15.971Z,102414.69
2023-10-06T04:25:42.893Z,102407.28
2023-10-06T04:28:12.178Z,102400.72
2023-10-06T04:30:39.717Z,102400.38
2023-10-06T04:33:06.757Z,102406.19
2023-10-06T04:35:33.876Z,102407.38
2023-10-06T04:38:02.250Z,102401.91
2023-10-06T04:40:30.122Z,102407.28
2023-10-06T04:43:02.626Z,102408.09
2023-10-06T04:45:32.938Z,102410.81
2023-10-06T04:48:01.728Z,102405.72
2023-10-06T04:50:30.673Z,102397.94
2023-10-06T04:52:57.950Z,102393.63
2023-10-06T04:55:24.512Z,102404.19
2023-10-06T04:57:51.105Z,102398.31
2023-10-06T05:00:28.130Z,102393.63
2023-10-06T05:02:54.698Z,102386.25
2023-10-06T05:05:23.946Z,102393.63
2023-10-06T05:07:54.653Z,102397.16
2023-10-06T05:10:26.514Z,102402.63
2023-10-06T05:12:54.505Z,102402.63
2023-10-06T05:15:25.318Z,102396.00
2023-10-06T05:17:56.407Z,102389.75
2023-10-06T05:20:24.602Z,102385.06
2023-10-06T05:22:51.875Z,102370.63
2023-10-06T05:25:20.813Z,102383.06
2023-10-06T05:27:48.488Z,102383.06
2023-10-06T05:30:15.956Z,102386.59
2023-10-06T05:32:43.696Z,102371.75
2023-10-06T05:35:15.099Z,102365.59
2023-10-06T05:37:44.196Z,102375.72
2023-10-06T05:40:13.390Z,102376.09
2023-10-06T05:42:41.942Z,102378.81
2023-10-06T05:45:16.933Z,102385.84
2023-10-06T05:47:46.333Z,102380.81
2023-10-06T05:50:19.923Z,102391.75
2023-10-06T05:52:52.895Z,102388.66
2023-10-06T05:55:20.850Z,102387.16
2023-10-06T05:57:59.003Z,102389.97
2023-10-06T06:00:28.181Z,102397.00
2023-10-06T06:02:59.235Z,102399.81
2023-10-06T06:05:30.922Z,102404.97
2023-10-06T06:08:00.525Z,102401.91
2023-10-06T06:10:34.773Z,102394.06
2023-10-06T06:13:01.360Z,102404.25
2023-10-06T06:15:28.349Z,102395.69
2023-10-06T06:17:55.302Z,102395.34
2023-10-06T06:20:23.373Z,102401.59
2023-10-06T06:22:54.499Z,102408.63
2023-10-06T06:25:22.914Z,102408.28
2023-10-06T06:27:51.030Z,102412.97
2023-10-06T06:30:19.875Z,102407.91
2023-10-06T06:32:56.035Z,102413.75
2023-10-06T06:35:24.091Z,102393.81
2023-10-06T06:37:52.573Z,102394.59
2023-10-06T06:40:21.073Z,102396.59
2023-10-06T06:42:49.717Z,102397.41
2023-10-06T06:45:16.823Z,102397.78
2023-10-06T06:47:43.466Z,102404.03
2023-10-06T06:50:14.538Z,102402.06
2023-10-06T06:52:41.374Z,102397.78
2023-10-06T06:55:13.950Z,102396.59
2023-10-06T06:57:44.360Z,102397.03
2023-10-06T07:00:17.028Z,102385.31
2023-10-06T07:02:52.152Z,102397.84
2023-10-06T07:05:20.602Z,102403.31
2023-10-06T07:07:50.167Z,102402.94
2023-10-06T07:10:21.338Z,102390.13
2023-10-06T07:12:50.057Z,102394.50
2023-10-06T07:15:18.621Z,102394.94
2023-10-06T07:17:47.012Z,102394.22
2023-10-06T07:20:15.464Z,102398.22
2023-10-06T07:22:42.439Z,102402.91
2023-10-06T07:25:11.883Z,102395.91
2023-10-06T07:27:39.791Z,102399.16
2023-10-06T07:30:11.180Z,102398.47
2023-10-06T07:32:44.798Z,102400.47
2023-10-06T07:35:14.037Z,102404.91
2023-10-06T07:37:44.509Z,102411.28
2023-10-06T07:40:14.637Z,102405.09
2023-10-06T07:42:43.529Z,102418.81
2023-10-06T07:45:10.778Z,102414.19
2023-10-06T07:47:40.603Z,102417.00
2023-10-06T07:50:08.628Z,102413.94
2023-10-06T07:52:37.010Z,102415.16
2023-10-06T07:55:06.900Z,102402.63
2023-10-06T07:57:34.355Z,102411.63
2023-10-06T08:00:01.084Z,102408.16
2023-10-06T08:02:30.411Z,102413.34
2023-10-06T08:04:57.292Z,102414.19
2023-10-06T08:07:27.717Z,102411.94
2023-10-06T08:10:01.299Z,102421.84
2023-10-06T08:12:28.357Z,102410.56
2023-10-06T08:14:55.568Z,102409.88
2023-10-06T08:17:23.390Z,102413.88
2023-10-06T08:19:50.052Z,102417.06
2023-10-06T08:22:17.189Z,102417.91
2023-10-06T08:24:44.608Z,102415.25
2023-10-06T08:27:12.849Z,102422.78
2023-10-06T08:29:39.672Z,102406.41
2023-10-06T08:32:07.734Z,102409.59
2023-10-06T08:34:40.385Z,102417.84
2023-10-06T08:37:12.372Z,102418.31
2023-10-06T08:39:40.379Z,102414.06
2023-10-06T08:42:11.190Z,102419.13
2023-10-06T08:44:40.133Z,102420.34
2023-10-06T08:47:26.386Z,102412.22
2023-10-06T08:49:58.023Z,102412.59
2023-10-06T08:52:24.776Z,102420.09
2023-10-06T08:54:51.454Z,102415.41
2023-10-06T08:57:18.015Z,102420.88
2023-10-06T08:59:46.050Z,102425.25
2023-10-06T09:02:13.144Z,102421.34
2023-10-06T09:04:39.926Z,102419.03
2023-10-06T09:07:09.321Z,102427.69
2023-10-06T09:09:37.379Z,102420.66
2023-10-06T09:12:04.924Z,102423.84
2023-10-06T09:14:32.538Z,102420.38
2023-10-06T09:17:02.785Z,102423.91
2023-10-06T09:19:49.654Z,102434.56
2023-10-06T09:22:17.745Z,102426.34
2023-10-06T09:24:56.953Z,102423.63
2023-10-06T09:27:26.308Z,102405.19
2023-10-06T09:30:00.239Z,102412.69
2023-10-06T09:32:27.229Z,102412.72
2023-10-06T09:34:54.997Z,102416.28
2023-10-06T09:37:21.825Z,102410.84
2023-10-06T09:40:21.382Z,102408.91
2023-10-06T09:42:49.602Z,102409.34
2023-10-06T09:45:23.029Z,102409.03
2023-10-06T09:47:51.611Z,102405.19
2023-10-06T09:50:21.613Z,102405.31
2023-10-06T09:52:50.724Z,102406.53
2023-10-06T09:55:18.933Z,102403.06
2023-10-06T09:57:48.352Z,102406.69
2023-10-06T10:00:18.891Z,102402.84
2023-10-06T10:02:48.552Z,102404.84
2023-10-06T10:05:20.139Z,102400.53
2023-10-06T10:07:49.789Z,102385.63
2023-10-06T10:10:23.434Z,102398.22
2023-10-06T10:13:13.286Z,102397.88
2023-10-06T10:15:41.866Z,102386.91
2023-10-06T10:18:24.595Z,102393.19
2023-10-06T10:20:51.611Z,102388.09
2023-10-06T10:23:18.204Z,102377.47
2023-10-06T10:25:46.013Z,102409.25
2023-10-06T10:28:14.601Z,102395.13
2023-10-06T10:30:58.227Z,102388.44
2023-10-06T10:33:29.355Z,102400.97
2023-10-06T10:36:13.252Z,102402.13
2023-10-06T10:38:41.147Z,102404.88
2023-10-06T10:41:08.581Z,102405.28
2023-10-06T10:43:42.138Z,102395.47
2023-10-06T10:46:10.251Z,102390.78
2023-10-06T10:48:38.996Z,102386.50
2023-10-06T10:51:12.273Z,102390.03
2023-10-06T10:53:43.353Z,102383.41
2023-10-06T10:56:14.785Z,102384.63
2023-10-06T10:58:45.532Z,102375.22
2023-10-06T11:01:28.892Z,102383.88
2023-10-06T11:04:11.303Z,102384.28
2023-10-06T11:06:40.722Z,102378.81
2023-10-06T11:09:24.160Z,102380.38
2023-10-06T11:11:50.754Z,102378.84
2023-10-06T11:14:17.327Z,102381.56
2023-10-06T11:16:47.787Z,102369.38
2023-10-06T11:19:16.321Z,102365.06
2023-10-06T11:21:45.346Z,102364.69
2023-10-06T11:24:14.226Z,102372.13
2023-10-06T11:26:44.596Z,102374.09
2023-10-06T11:29:11.138Z,102376.06
2023-10-06T11:31:37.841Z,102360.34
2023-10-06T11:34:04.592Z,102381.97
2023-10-06T11:36:31.870Z,102378.84
2023-10-06T11:38:58.463Z,102368.97
2023-10-06T11:41:25.424Z,102373.72
2023-10-06T11:43:56.487Z,102378.44
2023-10-06T11:46:23.100Z,102362.31
2023-10-06T11:48:51.135Z,102377.25
2023-10-06T11:51:17.722Z,102373.31
2023-10-06T11:53:45.802Z,102376.06
2023-10-06T11:56:15.232Z,102374.50
2023-10-06T11:58:43.275Z,102372.16
2023-10-06T12:01:33.945Z,102363.50
2023-10-06T12:06:47.795Z,102355.63
2023-10-06T12:09:25.013Z,102353.66
2023-10-06T12:11:51.713Z,102346.97
2023-10-06T12:14:18.284Z,102356.81
2023-10-06T12:16:46.179Z,102339.91
2023-10-06T12:19:13.783Z,102343.81
2023-10-06T12:21:40.337Z,102338.31
2023-10-06T12:24:09.576Z,102333.59
2023-10-06T12:26:36.296Z,102343.44
2023-10-06T12:29:03.311Z,102337.53
2023-10-06T12:31:29.928Z,102332.81
2023-10-06T12:33:56.947Z,102337.53
2023-10-06T12:36:24.587Z,102327.31
2023-10-06T12:38:51.180Z,102334.78
2023-10-06T12:41:19.060Z,102316.28
2023-10-06T12:43:48.648Z,102315.09
2023-10-06T12:46:15.461Z,102314.31
2023-10-06T12:48:42.066Z,102318.25
2023-10-06T12:51:13.033Z,102322.97
2023-10-06T12:53:41.818Z,102324.16
2023-10-06T12:56:09.993Z,102308.81
2023-10-06T12:58:36.725Z,102313.16
2023-10-06T13:01:08.482Z,102316.69
2023-10-06T13:03:37.443Z,102313.13
2023-10-06T13:06:04.932Z,102309.59
2023-10-06T13:08:31.699Z,102304.84
2023-10-06T13:10:58.429Z,102302.88
2023-10-06T13:13:25.086Z,102298.94
2023-10-06T13:15:52.086Z,102305.63
2023-10-06T13:18:19.258Z,102309.16
2023-10-06T13:20:46.983Z,102308.72
2023-10-06T13:23:14.092Z,102309.13
2023-10-06T13:25:42.494Z,102312.66
2023-10-06T13:28:16.161Z,102315.81
2023-10-06T13:30:44.645Z,102330.75
2023-10-06T13:33:11.536Z,102323.66
2023-10-06T13:35:38.331Z,102314.22
2023-10-06T13:38:05.992Z,102311.84
2023-10-06T13:40:35.525Z,102305.13
2023-10-06T13:43:02.280Z,102311.44
2023-10-06T13:45:31.039Z,102309.06
2023-10-06T13:48:04.391Z,102304.75
2023-10-06T13:50:32.270Z,102307.50
2023-10-06T13:52:58.950Z,102319.69
2023-10-06T13:55:26.026Z,102296.88
2023-10-06T13:57:54.571Z,102295.66
2023-10-06T14:00:41.573Z,102299.56
2023-10-06T14:03:13.310Z,102307.03
2023-10-06T14:05:42.760Z,102300.31
2023-10-06T14:08:11.203Z,102300.34
2023-10-06T14:10:38.369Z,102300.34
2023-10-06T14:13:17.922Z,102298.38
2023-10-06T14:15:54.750Z,102287.78
2023-10-06T14:18:26.092Z,102291.69
2023-10-06T14:20:58.050Z,102294.47
2023-10-06T14:23:26.193Z,102291.31
2023-10-06T14:25:54.760Z,102286.97
2023-10-06T14:28:23.490Z,102279.84
2023-10-06T14:30:52.753Z,102283.78
2023-10-06T14:33:29.650Z,102282.22
2023-10-06T14:35:59.666Z,102281.00
2023-10-06T14:38:33.673Z,102280.22
2023-10-06T14:41:16.547Z,102281.41
2023-10-06T14:47:22.304Z,102281.44
2023-10-06T14:49:48.831Z,102275.16
2023-10-06T14:52:15.714Z,102283.41
2023-10-06T14:54:42.395Z,102281.84
2023-10-06T14:57:09.150Z,102274.38
2023-10-06T14:59:36.271Z,102278.28
2023-10-06T15:04:55.378Z,102277.09
2023-10-06T15:07:21.956Z,102280.66
2023-10-06T15:09:50.631Z,102282.22
2023-10-06T15:12:17.341Z,102276.31
2023-10-06T15:14:45.858Z,102257.47
2023-10-06T15:17:13.772Z,102255.47
2023-10-06T15:19:40.491Z,102263.78
2023-10-06T15:24:56.795Z,102255.53
2023-10-06T15:27:24.457Z,102256.31
2023-10-06T15:29:52.406Z,102256.75
2023-10-06T15:32:19.027Z,102256.75
2023-10-06T15:34:45.629Z,102259.50
2023-10-06T15:37:12.207Z,102255.97
2023-10-06T15:39:42.114Z,102257.56
2023-10-06T15:42:10.954Z,102262.25
2023-10-06T15:44:38.709Z,102257.56
2023-10-06T15:47:08.745Z,102268.56
2023-10-06T15:49:39.512Z,102261.13
2023-10-06T15:52:06.601Z,102255.22
2023-10-06T15:54:33.742Z,102255.22
2023-10-06T15:57:01.019Z,102253.28
2023-10-06T15:59:31.089Z,102256.44
2023-10-06T16:01:58.004Z,102258.44
2023-10-06T16:04:27.654Z,102255.28
2023-10-06T16:06:54.619Z,102251.34
2023-10-06T16:09:21.476Z,102246.63
2023-10-06T16:11:49.073Z,102241.94
2023-10-06T16:14:17.739Z,102249.03
2023-10-06T16:16:45.258Z,102247.84
2023-10-06T16:19:15.469Z,102251.00
2023-10-06T16:21:43.451Z,102236.84
2023-10-06T16:24:13.079Z,102234.47
2023-10-06T16:26:40.213Z,102241.19
2023-10-06T16:29:08.602Z,102233.31
2023-10-06T16:31:35.604Z,102237.66
2023-10-06T16:34:02.491Z,102236.06
2023-10-06T16:36:29.228Z,102234.91
2023-10-06T16:38:55.850Z,102233.72
2023-10-06T16:41:22.848Z,102234.13
2023-10-06T16:43:54.694Z,102236.09
2023-10-06T16:46:21.770Z,102233.72
2023-10-06T16:48:49.853Z,102235.69
2023-10-06T16:51:18.844Z,102234.13
2023-10-06T16:53:49.633Z,102248.69
2023-10-06T16:56:17.183Z,102235.31
2023-10-06T16:58:44.015Z,102243.19
2023-10-06T17:01:12.000Z,102236.88
2023-10-06T17:03:38.895Z,102234.91
2023-10-06T17:06:07.629Z,102238.09
2023-10-06T17:08:34.610Z,102237.69
2023-10-06T17:11:15.764Z,102240.03
2023-10-06T17:13:43.382Z,102247.91
2023-10-06T17:16:14.139Z,102248.31
2023-10-06T17:18:42.677Z,102253.78
2023-10-06T17:21:13.130Z,102251.41
2023-10-06T17:23:40.001Z,102263.59
2023-10-06T17:26:09.248Z,102255.75
2023-10-06T17:28:36.745Z,102257.34
2023-10-06T17:31:04.136Z,102257.75
2023-10-06T17:33:31.410Z,102252.59
2023-10-06T17:35:58.328Z,102260.88
2023-10-06T17:38:25.161Z,102264.00
2023-10-06T17:40:51.790Z,102261.66
2023-10-06T17:43:18.557Z,102254.19
2023-10-06T17:45:45.874Z,102264.00
2023-10-06T17:48:15.506Z,102256.53
2023-10-06T17:50:49.690Z,102262.44
2023-10-06T17:53:17.395Z,102262.41
2023-10-06T17:55:53.551Z,102258.09
2023-10-06T17:58:20.352Z,102261.22
2023-10-06T18:00:48.753Z,102265.56
2023-10-06T18:03:18.351Z,102264.38
2023-10-06T18:05:46.395Z,102262.00
2023-10-06T18:08:13.081Z,102268.28
2023-10-06T18:10:41.767Z,102267.91
2023-10-06T18:13:08.741Z,102265.94
2023-10-06T18:15:40.711Z,102267.13
2023-10-06T18:18:07.995Z,102262.78
2023-10-06T18:20:39.427Z,102260.81
2023-10-06T18:23:06.967Z,102257.28
2023-10-06T18:25:35.442Z,102260.03
2023-10-06T18:28:04.430Z,102263.56
2023-10-06T18:30:32.061Z,102247.84
2023-10-06T18:32:59.084Z,102248.25
2023-10-06T18:35:26.926Z,102241.19
2023-10-06T18:37:54.641Z,102243.56
2023-10-06T18:40:22.573Z,102242.38
2023-10-06T18:42:49.178Z,102242.75
2023-10-06T18:45:15.923Z,102249.03
2023-10-06T18:47:42.610Z,102251.38
2023-10-06T18:50:18.741Z,102246.28
2023-10-06T18:52:47.864Z,102264.72
2023-10-06T18:55:15.662Z,102280.03
2023-10-06T18:57:42.930Z,102264.31
2023-10-06T19:00:12.370Z,102263.13
2023-10-06T19:02:40.689Z,102266.28
2023-10-06T19:05:08.319Z,102267.47
2023-10-06T19:07:35.401Z,102265.91
2023-10-06T19:10:03.496Z,102269.81
2023-10-06T19:12:30.345Z,102261.56
2023-10-06T19:14:57.307Z,102259.59
2023-10-06T19:17:24.575Z,102261.56
2023-10-06T19:19:54.648Z,102275.69
2023-10-06T19:22:21.550Z,102264.66
2023-10-06T19:24:48.248Z,102258.38
2023-10-06T19:27:15.160Z,102257.59
2023-10-06T19:29:41.736Z,102258.34
2023-10-06T19:32:09.627Z,102271.31
2023-10-06T19:34:36.298Z,102264.22
2023-10-06T19:37:02.932Z,102269.31
2023-10-06T19:39:29.522Z,102264.22
2023-10-06T19:41:58.361Z,102266.56
2023-10-06T19:44:32.945Z,102270.84
2023-10-06T19:47:03.698Z,102264.97
2023-10-06T19:49:31.629Z,102274.38
2023-10-06T19:51:58.588Z,102260.25
2023-10-06T19:54:26.670Z,102274.38
2023-10-06T19:56:53.320Z,102265.34
2023-10-06T19:59:20.447Z,102266.50
2023-10-06T20:01:47.159Z,102266.09
2023-10-06T20:04:13.907Z,102253.53
2023-10-06T20:06:40.569Z,102252.38
2023-10-06T20:09:11.178Z,102251.97
2023-10-06T20:11:39.029Z,102251.19
2023-10-06T20:14:08.189Z,102242.94
2023-10-06T20:16:34.945Z,102240.19
2023-10-06T20:19:01.945Z,102246.06
2023-10-06T20:21:30.692Z,102237.03
2023-10-06T20:23:58.190Z,102242.09
2023-10-06T20:26:25.009Z,102251.91
2023-10-06T20:28:51.614Z,102261.28
2023-10-06T20:31:18.420Z,102252.28
2023-10-06T20:33:46.538Z,102253.06
2023-10-06T20:36:13.123Z,102250.72
2023-10-06T20:38:39.813Z,102251.47
2023-10-06T20:41:06.422Z,102246.38
2023-10-06T20:43:33.634Z,102248.72
2023-10-06T20:46:05.019Z,102247.94
2023-10-06T20:48:31.867Z,102237.72
2023-10-06T20:51:04.726Z,102247.50
2023-10-06T20:53:33.374Z,102256.91
2023-10-06T20:56:03.941Z,102245.94
2023-10-06T20:58:31.062Z,102243.19
2023-10-06T21:01:04.296Z,102247.09
2023-10-06T21:03:32.042Z,102241.19
2023-10-06T21:06:01.858Z,102244.72
2023-10-06T21:08:30.933Z,102235.72
2023-10-06T21:11:02.189Z,102233.75
2023-10-06T21:13:28.982Z,102236.50
2023-10-06T21:15:55.530Z,102230.59
2023-10-06T21:18:23.487Z,102232.94
2023-10-06T21:20:50.310Z,102240.75
2023-10-06T21:23:17.016Z,102244.69
2023-10-06T21:25:45.915Z,102245.47
2023-10-06T21:28:13.162Z,102238.41
2023-10-06T21:30:39.789Z,102240.72
2023-10-06T21:33:06.525Z,102248.59
2023-10-06T21:35:33.466Z,102243.09
2023-10-06T21:38:01.274Z,102247.38
2023-10-06T21:40:28.510Z,102239.13
2023-10-06T21:42:55.829Z,102242.28
2023-10-06T21:45:22.335Z,102248.97
2023-10-06T21:47:49.078Z,102252.84
2023-10-06T21:50:16.059Z,102254.03
2023-10-06T21:52:43.443Z,102251.25
2023-10-06T21:55:10.443Z,102243.03
2023-10-06T21:57:37.108Z,102245.00
2023-10-06T22:00:12.301Z,102232.06
2023-10-06T22:02:39.225Z,102229.31
2023-10-06T22:05:06.654Z,102230.09
2023-10-06T22:07:33.562Z,102230.88
2023-10-06T22:10:00.719Z,102236.31
2023-10-06T22:12:27.565Z,102235.13
2023-10-06T22:14:55.633Z,102236.28
2023-10-06T22:17:22.267Z,102233.53
2023-10-06T22:19:48.878Z,102228.03
2023-10-06T22:22:16.217Z,102228.78
2023-10-06T22:24:42.840Z,102240.94
2023-10-06T22:27:11.258Z,102225.66
2023-10-06T22:29:39.827Z,102217.81
2023-10-06T22:32:07.477Z,102222.84
2023-10-06T22:34:34.272Z,102223.22
2023-10-06T22:37:05.521Z,102231.84
2023-10-06T22:39:42.243Z,102233.00
2023-10-06T22:42:08.863Z,102229.47
2023-10-06T22:44:36.963Z,102236.94
2023-10-06T22:47:05.113Z,102233.00
2023-10-06T22:49:32.323Z,102233.38
2023-10-06T22:52:00.443Z,102231.41
2023-10-06T22:54:26.995Z,102238.06
2023-10-06T22:56:53.581Z,102230.22
2023-10-06T22:59:21.657Z,102223.59
2023-10-06T23:01:49.695Z,102222.41
2023-10-06T23:04:17.104Z,102222.41
2023-10-06T23:06:43.821Z,102212.97
2023-10-06T23:09:13.814Z,102201.19
2023-10-06T23:11:40.930Z,102210.59
2023-10-06T23:14:10.064Z,102205.13
2023-10-06T23:16:40.484Z,102210.19
2023-10-06T23:19:13.550Z,102193.38
2023-10-06T23:21:42.625Z,102191.78
2023-10-06T23:24:16.241Z,102190.22
2023-10-06T23:26:43.812Z,102169.84
2023-10-06T23:29:10.698Z,102164.00
2023-10-06T23:31:37.864Z,102160.84
2023-10-06T23:34:05.443Z,102162.78
2023-10-06T23:36:32.145Z,102172.19
2023-10-06T23:39:00.090Z,102158.47
2023-10-06T23:41:26.978Z,102153.78
2023-10-06T23:43:53.791Z,102164.75
2023-10-06T23:46:22.322Z,102180.00
2023-10-06T23:48:52.828Z,102191.75
2023-10-06T23:51:20.191Z,102175.34
2023-10-06T23:53:46.879Z,102167.50
2023-10-06T23:56:24.085Z,102178.06
2023-10-06T23:58:59.078Z,102176.94
